Time;durP1;ratioP1;P1;durP2;ratioP2;P2;SDS_P1;SDS_P2;PMS_P1;PMS_P2;Temp;Humidity;BMP_temperature;BMP_pressure;BME280_temperature;BME280_humidity;BME280_pressure;Samples;Min_cycle;Max_cycle;Signal;HPM_P1;HPM_P2
2022/03/26 00:00:52;;;;;;;18.93;9.77;;;;;;;7.73;43.08;100089.09;5098717;27;41021;-74
2022/03/26 00:03:19;;;;;;;16.13;9.03;;;;;;;7.62;43.71;100070.97;5113263;27;42860;-78
2022/03/26 00:05:47;;;;;;;17.73;9.37;;;;;;;7.66;43.65;100082.28;5113290;27;41322;-76
2022/03/26 00:08:16;;;;;;;14.27;8.23;;;;;;;7.67;43.82;100090.13;5131820;27;41896;-76
2022/03/26 00:10:44;;;;;;;16.80;8.90;;;;;;;7.52;43.55;100065.13;5113591;27;41670;-76
2022/03/26 00:13:13;;;;;;;18.27;8.80;;;;;;;7.67;43.39;100094.53;5113502;27;43694;-76
2022/03/26 00:15:41;;;;;;;17.07;9.40;;;;;;;7.57;43.81;100079.00;5096355;27;41293;-75
2022/03/26 00:18:08;;;;;;;16.80;8.30;;;;;;;7.63;44.24;100085.00;5112797;27;41183;-76
2022/03/26 00:20:37;;;;;;;17.13;9.17;;;;;;;7.44;43.63;100067.09;5111545;27;41555;-76
2022/03/26 00:23:05;;;;;;;15.60;9.03;;;;;;;7.57;44.17;100097.47;5095184;27;41719;-76
2022/03/26 00:25:34;;;;;;;15.60;8.37;;;;;;;7.55;43.81;100091.38;5095280;27;42498;-76
2022/03/26 00:28:01;;;;;;;16.13;8.97;;;;;;;7.51;44.30;100091.53;5112485;27;41382;-77
2022/03/26 00:30:29;;;;;;;15.77;8.73;;;;;;;7.49;43.88;100094.19;5112280;27;41715;-76
2022/03/26 00:32:57;;;;;;;17.53;8.57;;;;;;;7.33;43.85;100069.22;5095137;27;43077;-76
2022/03/26 00:35:24;;;;;;;15.87;8.43;;;;;;;7.43;43.90;100085.59;5094973;27;42255;-76
2022/03/26 00:37:53;;;;;;;15.20;8.70;;;;;;;7.36;44.84;100077.03;5130689;27;41056;-76
2022/03/26 00:40:21;;;;;;;14.07;8.50;;;;;;;7.36;44.30;100084.06;5112096;27;42902;-77
2022/03/26 00:42:50;;;;;;;14.77;8.13;;;;;;;7.33;44.46;100094.69;5095164;27;43270;-75
2022/03/26 00:45:19;;;;;;;14.53;7.80;;;;;;;7.25;44.34;100087.03;5112038;27;42292;-76
2022/03/26 00:47:47;;;;;;;16.87;8.60;;;;;;;7.20;43.85;100092.41;5114127;27;40903;-76
2022/03/26 00:50:14;;;;;;;17.33;9.13;;;;;;;7.13;45.45;100087.38;5098040;27;41792;-76
2022/03/26 00:52:42;;;;;;;16.00;8.60;;;;;;;6.92;44.75;100066.94;5134357;27;42563;-75
2022/03/26 00:55:10;;;;;;;16.03;9.23;;;;;;;6.87;44.84;100068.81;5148038;27;42958;-76
2022/03/26 00:57:37;;;;;;;18.20;9.33;;;;;;;6.92;45.01;100088.00;5106385;27;41992;-76
2022/03/26 01:00:09;;;;;;;14.37;7.83;;;;;;;6.86;45.17;100083.75;5099156;27;42106;-76
2022/03/26 01:02:37;;;;;;;14.70;8.27;;;;;;;6.80;45.06;100081.28;5116164;27;43172;-76
2022/03/26 01:05:05;;;;;;;12.87;7.63;;;;;;;6.74;44.76;100084.09;5115369;27;41166;-76
2022/03/26 01:07:33;;;;;;;14.80;7.30;;;;;;;6.68;44.89;100079.84;5116613;27;39978;-76
2022/03/26 01:10:01;;;;;;;13.17;6.87;;;;;;;6.63;45.08;100078.25;5116436;27;41805;-76
2022/03/26 01:12:29;;;;;;;14.57;7.57;;;;;;;6.49;45.20;100065.47;5114429;27;41547;-76
2022/03/26 01:14:56;;;;;;;12.80;7.40;;;;;;;6.50;45.62;100072.47;5115332;27;43751;-76
2022/03/26 01:17:25;;;;;;;16.63;7.93;;;;;;;6.45;45.78;100066.44;5115709;27;41646;-75
2022/03/26 01:19:54;;;;;;;13.47;7.63;;;;;;;6.39;45.72;100069.25;5115097;27;41736;-76
2022/03/26 01:22:21;;;;;;;13.50;7.10;;;;;;;6.34;45.59;100074.63;5115086;27;41872;-76
2022/03/26 01:24:49;;;;;;;12.27;7.07;;;;;;;6.25;45.49;100074.88;5098016;27;43573;-75
2022/03/26 01:27:17;;;;;;;13.47;6.33;;;;;;;6.20;44.93;100071.47;5133938;27;41013;-75
2022/03/26 01:29:45;;;;;;;14.90;7.13;;;;;;;6.10;45.09;100070.84;5115165;27;41960;-75
2022/03/26 01:32:12;;;;;;;14.70;6.87;;;;;;;6.06;45.23;100077.06;5097805;27;42708;-75
2022/03/26 01:34:41;;;;;;;14.60;7.37;;;;;;;5.97;45.56;100079.94;5114840;27;43057;-75
2022/03/26 01:37:09;;;;;;;13.47;6.67;;;;;;;5.96;46.18;100085.22;5098044;27;40616;-76
2022/03/26 01:39:37;;;;;;;15.73;7.83;;;;;;;5.92;47.98;100076.56;5097763;27;41711;-76
2022/03/26 01:42:06;;;;;;;17.67;8.30;;;;;;;5.85;47.83;100074.94;5098002;27;42507;-76
2022/03/26 01:44:34;;;;;;;14.20;7.67;;;;;;;5.85;47.90;100080.19;5114819;27;42096;-75
2022/03/26 01:47:03;;;;;;;16.70;7.80;;;;;;;5.81;47.60;100083.78;5114824;27;42614;-76
2022/03/26 01:49:31;;;;;;;16.47;7.47;;;;;;;5.69;48.06;100052.53;5097505;27;40472;-76
2022/03/26 01:52:02;;;;;;;15.57;8.57;;;;;;;5.74;47.25;100087.47;5114881;27;43144;-75
2022/03/26 01:54:30;;;;;;;16.47;7.83;;;;;;;5.69;46.72;100091.97;5130696;27;42350;-75
2022/03/26 01:56:58;;;;;;;15.67;7.47;;;;;;;5.64;46.46;100091.22;5118149;27;41097;-75
2022/03/26 01:59:27;;;;;;;15.87;6.60;;;;;;;5.59;46.72;100085.19;5114652;27;40845;-76
2022/03/26 02:01:56;;;;;;;13.70;7.17;;;;;;;5.57;46.49;100084.34;5115068;27;43540;-76
2022/03/26 02:04:26;;;;;;;14.53;7.60;;;;;;;5.55;47.49;100076.53;5114777;27;43330;-76
2022/03/26 02:06:54;;;;;;;15.87;7.93;;;;;;;5.53;48.16;100077.47;5098548;27;42172;-76
2022/03/26 02:09:23;;;;;;;17.73;8.10;;;;;;;5.49;47.63;100087.16;5132737;27;41829;-76
2022/03/26 02:11:51;;;;;;;14.30;6.90;;;;;;;5.45;47.37;100071.50;5098225;27;42841;-76
2022/03/26 02:14:19;;;;;;;14.20;7.43;;;;;;;5.44;47.52;100077.69;5097665;27;42310;-77
2022/03/26 02:16:46;;;;;;;13.10;6.87;;;;;;;5.39;47.27;100073.38;5113687;27;41921;-76
2022/03/26 02:19:15;;;;;;;14.20;7.70;;;;;;;5.34;47.52;100072.59;5148604;27;41729;-76
2022/03/26 02:21:47;;;;;;;14.50;7.50;;;;;;;5.29;46.99;100078.88;5097490;27;41687;-76
2022/03/26 02:24:15;;;;;;;12.57;6.80;;;;;;;5.26;46.96;100084.19;5111762;27;42060;-75
2022/03/26 02:26:45;;;;;;;13.23;7.13;;;;;;;5.18;46.81;100076.47;5097267;27;42503;-76
2022/03/26 02:29:13;;;;;;;15.90;8.20;;;;;;;5.18;46.91;100080.88;5148646;27;42699;-76
2022/03/26 02:31:41;;;;;;;15.83;7.13;;;;;;;5.15;47.52;100076.53;5148909;27;43644;-76
2022/03/26 02:34:09;;;;;;;16.83;8.30;;;;;;;5.14;48.03;100076.56;5096464;27;41230;-76
2022/03/26 02:36:37;;;;;;;15.50;7.80;;;;;;;5.14;48.55;100073.94;5114246;27;41025;-76
2022/03/26 02:39:06;;;;;;;16.87;8.57;;;;;;;5.04;49.22;100042.63;5114099;27;41492;-76
2022/03/26 02:41:34;;;;;;;15.53;8.93;;;;;;;4.82;49.19;100009.81;5097084;27;41858;-76
2022/03/26 02:44:03;;;;;;;15.30;8.27;;;;;;;4.80;49.32;100002.91;5113672;27;42830;-76
2022/03/26 02:46:31;;;;;;;16.37;8.60;;;;;;;5.04;49.03;100047.00;5112970;27;42077;-76
2022/03/26 02:48:58;;;;;;;12.53;7.40;;;;;;;5.10;48.98;100067.88;5096509;27;41719;-76
2022/03/26 02:51:26;;;;;;;16.10;7.03;;;;;;;5.00;48.74;100061.97;5113778;27;42909;-76
2022/03/26 02:53:54;;;;;;;13.50;7.33;;;;;;;4.89;48.91;100036.81;5148170;27;43090;-76
2022/03/26 02:56:23;;;;;;;17.63;7.57;;;;;;;4.94;49.30;100050.75;5096702;27;39971;-75
2022/03/26 02:58:51;;;;;;;14.87;8.30;;;;;;;4.88;49.16;100058.72;5130982;27;40726;-75
2022/03/26 03:01:19;;;;;;;15.47;7.10;;;;;;;4.87;49.24;100059.59;5132273;27;42735;-75
2022/03/26 03:03:47;;;;;;;16.93;8.00;;;;;;;4.81;49.44;100060.63;5096279;27;43705;-75
2022/03/26 03:06:15;;;;;;;16.07;7.77;;;;;;;4.72;50.87;100036.28;5113687;27;41915;-75
2022/03/26 03:08:43;;;;;;;15.63;8.57;;;;;;;4.75;51.20;100044.13;5133190;27;41821;-75
2022/03/26 03:11:11;;;;;;;17.73;7.50;;;;;;;4.75;50.59;100044.97;5096161;27;41809;-75
2022/03/26 03:13:40;;;;;;;19.13;9.13;;;;;;;4.72;50.32;100044.16;5111620;27;42289;-75
2022/03/26 03:16:07;;;;;;;15.83;7.93;;;;;;;4.53;49.70;100027.94;5099592;27;41669;-76
2022/03/26 03:18:35;;;;;;;14.83;8.37;;;;;;;4.62;49.78;100059.22;5114210;27;42294;-75
2022/03/26 03:21:03;;;;;;;13.17;6.33;;;;;;;4.57;50.65;100046.22;5126412;27;42854;-75
2022/03/26 03:23:30;;;;;;;13.13;6.93;;;;;;;4.52;50.62;100048.06;5116843;27;43672;-75
2022/03/26 03:25:58;;;;;;;14.73;8.37;;;;;;;4.49;50.90;100053.34;5102328;28;39987;-75
2022/03/26 03:28:26;;;;;;;19.00;8.60;;;;;;;4.46;52.72;100048.16;5076610;28;41997;-75
2022/03/26 03:30:55;;;;;;;16.37;9.37;;;;;;;4.29;51.19;100024.00;5093492;28;43731;-76
2022/03/26 03:33:23;;;;;;;14.10;8.37;;;;;;;4.41;51.44;100055.25;5093351;28;42607;-75
2022/03/26 03:35:50;;;;;;;21.60;8.97;;;;;;;4.34;51.02;100044.00;5093230;28;41017;-76
2022/03/26 03:38:18;;;;;;;17.13;8.03;;;;;;;4.32;50.82;100053.69;5091011;28;42586;-75
2022/03/26 03:40:46;;;;;;;17.03;7.67;;;;;;;4.29;50.54;100052.88;5110900;28;42800;-76
2022/03/26 03:43:13;;;;;;;11.20;6.47;;;;;;;4.16;50.97;100043.47;5091802;28;41823;-74
2022/03/26 03:45:41;;;;;;;14.57;7.57;;;;;;;4.13;50.71;100040.91;5110348;28;41501;-75
2022/03/26 03:48:10;;;;;;;12.47;7.30;;;;;;;4.16;52.02;100046.97;5086783;27;42041;-76
2022/03/26 03:50:38;;;;;;;15.40;8.03;;;;;;;4.18;52.49;100058.31;5112291;27;43152;-75
2022/03/26 03:53:06;;;;;;;14.03;8.50;;;;;;;4.15;52.49;100047.00;5113072;27;42260;-76
2022/03/26 03:55:33;;;;;;;14.03;8.13;;;;;;;4.11;51.54;100061.03;5115368;27;41698;-76
2022/03/26 03:58:01;;;;;;;20.33;9.67;;;;;;;4.08;50.98;100058.50;5113094;27;41763;-76
2022/03/26 04:00:29;;;;;;;15.83;7.73;;;;;;;4.01;51.55;100052.47;5129659;27;43754;-75
2022/03/26 04:02:56;;;;;;;12.73;6.77;;;;;;;3.89;52.30;100037.81;5130646;27;42349;-75
2022/03/26 04:05:26;;;;;;;14.63;8.13;;;;;;;3.98;53.31;100052.50;5112375;27;39871;-76
2022/03/26 04:07:54;;;;;;;16.37;8.13;;;;;;;3.97;52.54;100064.75;5113134;27;42091;-76
2022/03/26 04:10:22;;;;;;;17.50;8.40;;;;;;;3.89;52.03;100061.41;5112210;27;42735;-76
2022/03/26 04:12:50;;;;;;;13.67;6.93;;;;;;;3.89;51.94;100069.25;5130754;27;42342;-74
2022/03/26 04:15:18;;;;;;;15.07;7.80;;;;;;;3.78;51.66;100058.09;5130829;27;41133;-76
2022/03/26 04:17:47;;;;;;;12.67;7.33;;;;;;;3.82;51.59;100090.34;5094663;27;40694;-76
2022/03/26 04:20:16;;;;;;;9.30;5.97;;;;;;;3.78;51.48;100089.53;5083535;27;41533;-75
2022/03/26 04:22:45;;;;;;;15.73;8.13;;;;;;;3.75;51.53;100093.94;5113960;27;41166;-76
2022/03/26 04:25:13;;;;;;;13.83;7.50;;;;;;;3.72;52.92;100089.59;5098838;27;39625;-75
2022/03/26 04:27:44;;;;;;;16.63;8.23;;;;;;;3.72;52.35;100094.84;5116068;27;40529;-75
2022/03/26 04:30:13;;;;;;;11.93;6.93;;;;;;;3.69;52.17;100092.28;5115919;27;43396;-76
2022/03/26 04:32:40;;;;;;;13.07;7.37;;;;;;;3.58;51.82;100083.72;5134781;27;43041;-76
2022/03/26 04:35:09;;;;;;;17.40;8.90;;;;;;;3.63;51.67;100095.00;5115899;27;40990;-75
2022/03/26 04:37:37;;;;;;;15.97;8.60;;;;;;;3.58;52.14;100094.22;5116173;27;40850;-75
2022/03/26 04:40:09;;;;;;;19.83;8.40;;;;;;;3.59;52.74;100088.06;5098436;27;41563;-76
2022/03/26 04:42:37;;;;;;;17.40;9.00;;;;;;;3.55;52.75;100089.00;5131478;27;43148;-76
2022/03/26 04:45:06;;;;;;;13.90;7.67;;;;;;;3.56;52.53;100103.84;5098690;27;39506;-76
2022/03/26 04:47:33;;;;;;;13.10;6.73;;;;;;;3.53;52.17;100109.13;5116087;27;41729;-76
2022/03/26 04:50:01;;;;;;;16.63;8.07;;;;;;;3.42;52.82;100084.84;5098228;27;43150;-75
2022/03/26 04:52:28;;;;;;;19.90;8.97;;;;;;;3.43;52.72;100086.56;5115689;27;42961;-76
2022/03/26 04:54:57;;;;;;;18.33;9.90;;;;;;;3.45;52.41;100105.75;5115221;27;40027;-75
2022/03/26 04:57:26;;;;;;;14.60;7.47;;;;;;;3.45;52.44;100108.38;5115911;27;41803;-75
2022/03/26 04:59:54;;;;;;;20.13;8.37;;;;;;;3.41;52.55;100104.03;5115502;27;43758;-75
2022/03/26 05:02:21;;;;;;;17.57;7.80;;;;;;;3.42;52.93;100108.41;5097816;27;41525;-77
2022/03/26 05:04:49;;;;;;;18.70;8.27;;;;;;;3.40;55.16;100091.84;5133857;27;41087;-75
2022/03/26 05:10:02;;;;;;;18.63;10.40;;;;;;;3.39;56.32;100090.09;5098246;27;42846;-75
2022/03/26 05:12:31;;;;;;;16.03;8.17;;;;;;;3.40;55.54;100103.19;5101588;27;44868;-75
2022/03/26 05:15:00;;;;;;;20.80;10.17;;;;;;;3.40;55.49;100102.31;5132709;27;41319;-75
2022/03/26 05:17:27;;;;;;;18.83;9.03;;;;;;;3.40;55.00;100104.94;5133958;27;41719;-74
2022/03/26 05:19:55;;;;;;;15.90;8.30;;;;;;;3.40;54.44;100115.41;5132591;27;42710;-75
2022/03/26 05:22:23;;;;;;;15.77;8.10;;;;;;;3.41;54.24;100110.16;5133612;27;42383;-75
2022/03/26 05:24:50;;;;;;;11.43;6.73;;;;;;;3.43;54.40;100112.75;5132421;27;39774;-75
2022/03/26 05:27:18;;;;;;;15.10;8.43;;;;;;;3.35;54.17;100098.88;5128985;27;42569;-75
2022/03/26 05:29:49;;;;;;;15.17;7.27;;;;;;;3.45;54.04;100121.47;5126481;27;42722;-75
2022/03/26 05:32:16;;;;;;;13.37;8.10;;;;;;;3.46;54.04;100113.56;5112600;27;42969;-75
2022/03/26 05:34:45;;;;;;;13.97;6.97;;;;;;;3.49;54.44;100112.66;5097507;27;39836;-75
2022/03/26 05:37:13;;;;;;;13.80;7.40;;;;;;;3.52;54.69;100118.72;5098215;27;40815;-76
2022/03/26 05:39:40;;;;;;;14.13;8.47;;;;;;;3.53;54.13;100125.69;5115608;27;41707;-76
2022/03/26 05:42:09;;;;;;;13.70;7.90;;;;;;;3.57;54.05;100127.41;5115021;27;42212;-76
2022/03/26 05:44:36;;;;;;;14.43;7.97;;;;;;;3.61;54.29;100128.19;5115903;27;39784;-75
2022/03/26 05:47:06;;;;;;;12.90;7.30;;;;;;;3.63;55.11;100121.19;5150309;27;40643;-77
2022/03/26 05:49:34;;;;;;;17.53;9.17;;;;;;;3.72;55.72;100130.66;5126249;27;42870;-75
2022/03/26 05:52:02;;;;;;;15.17;7.67;;;;;;;3.77;55.33;100129.72;5097829;28;42359;-75
2022/03/26 05:54:31;;;;;;;17.17;8.17;;;;;;;3.75;55.04;100109.66;5104324;27;20233;-75
2022/03/26 05:56:58;;;;;;;18.03;9.23;;;;;;;3.85;54.44;100133.06;5132796;27;42987;-75
2022/03/26 05:59:28;;;;;;;12.53;7.67;;;;;;;3.93;53.95;100146.97;5100628;27;42699;-74
2022/03/26 06:01:56;;;;;;;13.67;7.37;;;;;;;4.01;53.88;100153.81;5114751;27;42329;-76
2022/03/26 06:04:28;;;;;;;16.93;9.40;;;;;;;3.65;53.89;100079.25;5114899;27;41946;-77
2022/03/26 06:06:59;;;;;;;12.20;6.87;;;;;;;4.15;54.67;100147.47;5098482;27;40955;-76
2022/03/26 06:09:26;;;;;;;13.90;8.23;;;;;;;4.27;54.40;100152.53;5133194;27;42743;-77
2022/03/26 06:11:55;;;;;;;15.47;8.57;;;;;;;4.37;54.05;100155.00;5133240;27;42426;-75
2022/03/26 06:14:23;;;;;;;13.73;8.40;;;;;;;4.46;53.69;100153.06;5097704;27;41398;-75
2022/03/26 06:16:51;;;;;;;13.13;7.60;;;;;;;4.59;53.84;100151.97;5111007;27;41945;-75
2022/03/26 06:19:18;;;;;;;16.07;8.70;;;;;;;4.49;53.64;100121.56;5112760;27;42852;-75
2022/03/26 06:21:47;;;;;;;15.40;8.43;;;;;;;4.83;53.70;100158.53;5090171;28;43138;-75
2022/03/26 06:24:15;;;;;;;14.87;7.80;;;;;;;4.98;53.47;100173.13;5096005;27;39791;-75
2022/03/26 06:26:44;;;;;;;13.63;8.30;;;;;;;5.14;53.24;100171.97;5115257;27;41828;-75
2022/03/26 06:29:12;;;;;;;14.57;8.37;;;;;;;5.34;52.99;100169.78;5133089;27;43697;-75
2022/03/26 06:31:40;;;;;;;17.57;8.50;;;;;;;5.55;53.07;100170.25;5098000;27;42716;-75
2022/03/26 06:34:07;;;;;;;17.27;8.73;;;;;;;5.73;53.38;100165.47;5109910;27;41011;-75
2022/03/26 06:36:35;;;;;;;18.00;9.97;;;;;;;5.90;53.10;100164.25;5094343;27;42038;-75
2022/03/26 06:39:06;;;;;;;15.63;8.13;;;;;;;6.07;52.67;100175.25;5114528;27;42923;-76
2022/03/26 06:41:35;;;;;;;17.40;9.63;;;;;;;6.23;53.13;100159.97;5098034;27;40968;-76
2022/03/26 06:44:03;;;;;;;16.97;10.50;;;;;;;6.41;52.60;100167.44;5098444;27;42415;-77
2022/03/26 06:46:32;;;;;;;19.40;9.73;;;;;;;6.66;52.43;100163.28;5116125;27;42931;-76
2022/03/26 06:48:59;;;;;;;15.87;8.20;;;;;;;6.93;51.84;100168.72;5132600;27;42678;-76
2022/03/26 06:51:27;;;;;;;16.13;8.77;;;;;;;7.21;51.70;100170.56;5098819;27;44371;-77
2022/03/26 06:53:54;;;;;;;16.70;8.90;;;;;;;7.43;51.24;100170.81;5116443;27;40728;-76
2022/03/26 06:56:23;;;;;;;15.73;9.43;;;;;;;7.70;51.35;100176.19;5125063;27;40724;-76
2022/03/26 06:58:51;;;;;;;16.47;8.67;;;;;;;8.11;50.83;100178.44;5131456;27;42590;-76
2022/03/26 07:01:19;;;;;;;15.40;8.30;;;;;;;8.67;49.79;100177.53;5114323;27;42823;-76
2022/03/26 07:03:51;;;;;;;16.37;8.10;;;;;;;9.20;48.62;100191.53;5122607;27;39970;-75
2022/03/26 07:06:19;;;;;;;15.97;9.10;;;;;;;9.51;47.76;100194.81;5100799;28;41373;-76
2022/03/26 07:08:47;;;;;;;19.40;10.27;;;;;;;9.96;47.29;100191.34;5108002;27;41760;-76
2022/03/26 07:11:16;;;;;;;14.13;9.20;;;;;;;10.88;46.06;100202.59;5102133;28;41342;-76
2022/03/26 07:13:45;;;;;;;15.80;9.63;;;;;;;12.38;43.15;100229.44;5111669;28;40661;-76
2022/03/26 07:16:13;;;;;;;16.73;10.73;;;;;;;13.98;40.13;100237.19;5086062;28;42315;-74
2022/03/26 07:18:41;;;;;;;13.97;9.57;;;;;;;15.31;37.53;100246.47;5122367;27;42779;-75
2022/03/26 07:21:08;;;;;;;18.57;10.77;;;;;;;16.30;35.75;100269.75;5083131;27;42381;-75
2022/03/26 07:23:36;;;;;;;16.90;11.50;;;;;;;17.14;34.37;100267.81;5113526;27;41984;-74
2022/03/26 07:26:04;;;;;;;21.37;12.37;;;;;;;17.89;33.53;100271.59;5112754;27;41912;-78
2022/03/26 07:28:32;;;;;;;18.73;12.17;;;;;;;18.69;32.04;100288.19;5124206;27;42890;-75
2022/03/26 07:31:01;;;;;;;18.53;12.17;;;;;;;19.38;31.16;100272.19;5110388;27;42311;-75
2022/03/26 07:33:28;;;;;;;18.27;12.20;;;;;;;20.05;29.70;100301.06;5093212;28;41088;-75
2022/03/26 07:35:56;;;;;;;19.10;13.23;;;;;;;20.28;29.69;100300.09;5093178;28;41763;-75
2022/03/26 07:38:24;;;;;;;15.43;11.83;;;;;;;20.23;29.61;100286.16;5112608;27;43763;-75
2022/03/26 07:40:52;;;;;;;16.47;12.57;;;;;;;20.50;29.30;100291.22;5117091;27;42216;-75
2022/03/26 07:43:19;;;;;;;18.07;13.57;;;;;;;21.24;28.17;100315.69;5153306;27;40906;-76
2022/03/26 07:45:48;;;;;;;17.00;12.50;;;;;;;22.32;27.62;100315.31;5117154;27;42156;-76
2022/03/26 07:48:17;;;;;;;15.83;12.00;;;;;;;23.80;25.54;100316.16;5114146;27;42997;-75
2022/03/26 07:50:49;;;;;;;16.07;12.60;;;;;;;25.39;23.71;100343.00;5117150;27;41618;-76
2022/03/26 07:53:17;;;;;;;15.90;12.43;;;;;;;27.04;21.66;100345.69;5135947;27;42326;-75
2022/03/26 07:55:46;;;;;;;15.13;12.17;;;;;;;28.17;20.81;100344.97;5068853;27;42166;-73
2022/03/26 07:58:13;;;;;;;15.60;12.47;;;;;;;28.54;20.22;100340.81;5112572;27;42717;-75
2022/03/26 08:00:41;;;;;;;16.43;13.23;;;;;;;29.20;19.43;100361.31;5116866;27;42496;-78
2022/03/26 08:03:10;;;;;;;15.13;13.00;;;;;;;30.13;18.86;100353.00;5092122;28;41509;-77
2022/03/26 08:05:39;;;;;;;17.20;13.30;;;;;;;29.87;18.89;100364.31;5112959;27;41792;-77
2022/03/26 08:08:07;;;;;;;16.43;12.50;;;;;;;29.39;19.01;100341.81;5134254;27;43590;-77
2022/03/26 08:10:35;;;;;;;15.97;13.33;;;;;;;28.61;19.31;100358.16;5152255;27;42475;-77
2022/03/26 08:13:02;;;;;;;15.83;13.13;;;;;;;28.23;19.38;100347.00;5152787;27;40985;-77
2022/03/26 08:15:30;;;;;;;20.80;14.27;;;;;;;26.89;20.17;100347.31;5108053;27;41880;-77
2022/03/26 08:18:02;;;;;;;17.90;12.90;;;;;;;25.66;21.53;100343.97;5113694;27;42867;-77
2022/03/26 08:20:30;;;;;;;20.93;13.77;;;;;;;25.77;21.68;100338.28;5111946;27;43041;-78
2022/03/26 08:22:59;;;;;;;20.37;14.10;;;;;;;26.85;20.38;100351.34;5113370;27;40306;-79
2022/03/26 08:28:12;;;;;;;15.97;12.77;;;;;;;28.38;19.24;100358.06;5089507;28;43654;-75
2022/03/26 08:30:41;;;;;;;17.53;14.00;;;;;;;28.12;20.33;100351.94;5101080;27;42392;-76
2022/03/26 08:33:09;;;;;;;18.90;14.37;;;;;;;27.73;20.53;100354.50;5131515;27;40788;-78
2022/03/26 08:35:39;;;;;;;17.37;13.67;;;;;;;28.31;20.30;100348.03;5112954;27;42766;-77
2022/03/26 08:38:09;;;;;;;16.60;13.37;;;;;;;29.32;19.91;100357.16;5103614;28;42854;-77
2022/03/26 08:40:37;;;;;;;16.90;13.67;;;;;;;30.82;18.33;100368.13;5103454;27;42343;-77
2022/03/26 08:43:06;;;;;;;18.20;14.13;;;;;;;32.02;16.26;100344.63;5126323;27;41269;-76
2022/03/26 08:45:34;;;;;;;17.98;14.65;;;;;;;33.48;15.59;100384.81;5107349;27;42158;-76
2022/03/26 08:48:03;;;;;;;18.20;14.38;;;;;;;34.67;15.35;100384.88;5131165;27;42721;-79
2022/03/26 08:50:30;;;;;;;16.90;14.43;;;;;;;35.60;14.20;100387.09;5094770;27;42478;-76
2022/03/26 08:52:58;;;;;;;16.83;13.45;;;;;;;36.19;13.93;100391.34;5131519;27;41922;-77
2022/03/26 08:55:28;;;;;;;15.80;13.95;;;;;;;36.53;12.98;100386.38;5093264;27;40701;-77
2022/03/26 08:57:57;;;;;;;15.82;14.15;;;;;;;36.34;13.26;100385.50;5096207;27;41865;-79
2022/03/26 09:00:26;;;;;;;14.43;12.93;;;;;;;37.19;13.43;100381.00;5111942;27;42974;-78
2022/03/26 09:02:54;;;;;;;15.63;12.98;;;;;;;38.07;12.30;100395.03;5112546;27;41311;-78
2022/03/26 09:05:22;;;;;;;16.45;13.88;;;;;;;37.29;12.44;100392.31;5111941;27;41724;-76
2022/03/26 09:07:51;;;;;;;18.98;15.88;;;;;;;35.71;12.83;100388.28;5113200;27;42728;-75
2022/03/26 09:10:19;;;;;;;16.88;13.95;;;;;;;35.71;13.46;100380.00;5115398;27;40928;-84
2022/03/26 09:12:48;;;;;;;16.35;14.32;;;;;;;35.72;13.58;100372.59;5099738;27;41149;-82
2022/03/26 09:15:16;;;;;;;17.88;14.40;;;;;;;36.22;12.86;100381.81;5131273;27;41852;-82
2022/03/26 09:17:44;;;;;;;15.48;13.27;;;;;;;37.48;12.22;100392.28;5116750;27;43582;-83
2022/03/26 09:20:12;;;;;;;14.48;13.02;;;;;;;38.30;12.01;100393.38;5115681;27;41762;-82
2022/03/26 09:22:39;;;;;;;16.70;14.75;;;;;;;37.86;11.65;100392.78;5100012;27;41314;-80
2022/03/26 09:25:08;;;;;;;16.20;14.50;;;;;;;36.97;11.95;100374.19;5116090;27;40685;-80
2022/03/26 09:27:35;;;;;;;15.88;14.02;;;;;;;36.37;12.45;100379.50;5131388;27;42717;-80
2022/03/26 09:30:06;;;;;;;16.80;13.93;;;;;;;35.53;13.20;100380.75;5082874;27;41070;-78
2022/03/26 09:32:34;;;;;;;18.23;13.68;;;;;;;34.87;13.89;100369.16;5116235;27;41998;-80
2022/03/26 09:35:01;;;;;;;17.23;15.40;;;;;;;34.20;13.84;100381.31;5096380;27;40731;-79
2022/03/26 09:37:28;;;;;;;18.87;14.93;;;;;;;33.86;14.27;100372.22;5094677;27;44569;-80
2022/03/26 09:39:56;;;;;;;17.47;14.17;;;;;;;33.37;14.55;100366.19;5115177;27;41770;-79
2022/03/26 09:42:24;;;;;;;14.93;13.27;;;;;;;33.29;14.59;100364.44;5116021;27;39912;-79
2022/03/26 09:44:52;;;;;;;15.97;13.40;;;;;;;33.14;14.61;100364.56;5115327;27;41406;-79
2022/03/26 09:47:22;;;;;;;16.83;13.67;;;;;;;32.33;15.13;100357.16;5115847;27;43536;-81
2022/03/26 09:49:56;;;;;;;17.43;13.77;;;;;;;31.73;15.81;100356.63;5114976;27;41407;-76
2022/03/26 09:52:24;;;;;;;18.07;15.03;;;;;;;31.66;16.29;100346.63;5095936;27;40050;-79
2022/03/26 09:54:52;;;;;;;15.73;12.43;;;;;;;31.47;16.03;100353.59;5106995;27;42701;-79
2022/03/26 09:57:20;;;;;;;15.93;12.97;;;;;;;30.81;16.28;100339.09;5133870;27;42774;-78
2022/03/26 09:59:47;;;;;;;18.73;13.00;;;;;;;30.78;16.17;100344.97;5110575;27;42390;-81
2022/03/26 10:02:16;;;;;;;18.13;13.03;;;;;;;31.02;16.11;100341.06;5098203;27;42563;-80
2022/03/26 10:04:45;;;;;;;16.30;11.60;;;;;;;30.75;16.38;100331.66;5097047;27;41988;-79
2022/03/26 10:07:13;;;;;;;16.83;13.33;;;;;;;30.58;16.13;100343.81;5113174;27;44103;-81
2022/03/26 10:09:44;;;;;;;16.47;13.03;;;;;;;30.27;17.18;100328.44;5095186;28;42350;-78
2022/03/26 10:12:13;;;;;;;19.43;13.83;;;;;;;30.25;16.55;100343.31;5094862;28;39911;-77
2022/03/26 10:14:44;;;;;;;16.70;13.07;;;;;;;30.64;16.46;100338.47;5113926;27;42815;-78
2022/03/26 10:17:14;;;;;;;14.00;12.10;;;;;;;30.99;16.21;100325.00;5094904;27;43015;-81
2022/03/26 10:19:45;;;;;;;14.80;11.30;;;;;;;30.63;16.53;100324.97;5111414;27;41152;-78
2022/03/26 10:22:22;;;;;;;14.60;12.00;;;;;;;29.89;16.37;100326.72;5092957;28;41116;-77
2022/03/26 10:24:49;;;;;;;14.63;11.40;;;;;;;30.41;16.84;100329.47;5114528;27;42475;-77
2022/03/26 10:27:17;;;;;;;14.50;10.10;;;;;;;31.03;16.01;100331.81;5120322;27;42664;-76
2022/03/26 10:29:50;;;;;;;14.03;11.40;;;;;;;31.98;14.95;100343.34;5107571;27;42034;-78
2022/03/26 10:32:41;;;;;;;14.10;10.67;;;;;;;32.73;14.71;100330.84;5110734;27;41493;-77
2022/03/26 10:35:14;;;;;;;15.20;10.57;;;;;;;33.09;14.24;100347.03;5097010;27;41829;-77
2022/03/26 10:37:47;;;;;;;15.63;11.20;;;;;;;33.57;14.62;100319.50;5097504;27;44317;-78
2022/03/26 10:40:20;;;;;;;12.13;9.95;;;;;;;34.32;14.06;100316.38;5114049;27;43013;-76
2022/03/26 10:42:54;;;;;;;10.93;9.03;;;;;;;35.08;12.97;100341.34;5111751;27;40925;-77
2022/03/26 10:45:22;;;;;;;9.90;7.80;;;;;;;34.75;13.59;100329.56;5114710;27;43056;-77
2022/03/26 10:47:57;;;;;;;13.57;8.10;;;;;;;34.62;13.22;100316.69;5129566;27;43543;-77
2022/03/26 10:50:27;;;;;;;11.33;7.73;;;;;;;34.83;13.04;100335.72;5096805;27;41129;-76
2022/03/26 10:52:56;;;;;;;8.60;7.70;;;;;;;35.35;12.63;100327.47;5114487;27;41172;-77
2022/03/26 10:55:25;;;;;;;10.68;8.15;;;;;;;35.59;12.38;100318.41;5114277;27;40741;-78
2022/03/26 10:57:53;;;;;;;7.65;6.85;;;;;;;36.55;11.83;100329.00;5114811;27;43719;-77
2022/03/26 11:00:21;;;;;;;10.52;7.57;;;;;;;37.07;12.03;100335.00;5113917;27;42126;-77
2022/03/26 11:02:49;;;;;;;9.55;6.85;;;;;;;37.94;11.46;100317.78;5114552;27;40995;-77
2022/03/26 11:05:17;;;;;;;10.50;6.95;;;;;;;39.28;11.03;100321.34;5097712;27;42351;-78
2022/03/26 11:07:46;;;;;;;6.85;6.03;;;;;;;40.34;10.26;100314.03;5096825;27;43614;-77
2022/03/26 11:10:14;;;;;;;7.20;6.47;;;;;;;41.16;10.02;100327.13;5096206;27;40694;-77
2022/03/26 11:12:44;;;;;;;9.05;6.53;;;;;;;40.74;9.55;100327.69;5132815;27;40687;-77
2022/03/26 11:15:15;;;;;;;7.45;6.28;;;;;;;40.33;9.78;100319.84;5096733;27;42962;-78
2022/03/26 11:17:59;;;;;;;8.20;6.50;;;;;;;39.89;10.23;100319.72;5097324;27;43647;-77
2022/03/26 11:20:49;;;;;;;11.18;5.97;;;;;;;40.43;10.00;100297.81;5112912;27;42590;-77
2022/03/26 11:23:28;;;;;;;9.40;6.03;;;;;;;41.15;9.26;100317.94;5088193;27;41209;-78
2022/03/26 11:26:09;;;;;;;8.02;5.90;;;;;;;41.83;9.35;100312.75;5096074;27;40557;-77
2022/03/26 11:28:49;;;;;;;7.32;6.07;;;;;;;42.63;9.33;100306.94;5107892;27;43711;-77
2022/03/26 11:31:24;;;;;;;7.07;6.32;;;;;;;43.31;8.57;100290.19;5094152;27;41987;-77